This is the latest recevied weather packets stored in our database for station/object HS9UAC-10. If no packets are shown the sender has not sent any weather packets the latest 10 day(s).
| Time | Temp. | Humidity | Pressure | Rain* | Wind** | Luminosity | Snow |
|---|---|---|---|---|---|---|---|
| 1777456691 | 41.67° C | 46% | 1005 hPa | - | - | 0 W/m² | - |
| 1777455766 | 42.78° C | 44% | 1005 hPa | - | - | 0 W/m² | - |
| 1777454852 | 43.89° C | 42% | 1005 hPa | - | - | 0 W/m² | - |
| 1777453917 | 42.78° C | 45% | 1005 hPa | - | - | 0 W/m² | - |
| 1777452993 | 41.67° C | 46% | 1005 hPa | - | - | 0 W/m² | - |
| 1777452068 | 42.78° C | 44% | 1005 hPa | - | - | 0 W/m² | - |
| 1777451143 | 42.22° C | 44% | 1005 hPa | - | - | 0 W/m² | - |
| 1777450219 | 41.67° C | 48% | 1006 hPa | - | - | 0 W/m² | - |
| 1777449294 | 40° C | 52% | 1006 hPa | - | - | 0 W/m² | - |
| 1777448370 | 38.89° C | 56% | 1006 hPa | - | - | 0 W/m² | - |
| 1777447445 | 38.33° C | 55% | 1006 hPa | - | - | 0 W/m² | - |
| 1777446521 | 40° C | 50% | 1006 hPa | - | - | 0 W/m² | - |
| 1777445596 | 40.56° C | 49% | 1007 hPa | - | - | 0 W/m² | - |
| 1777444671 | 38.89° C | 56% | 1007 hPa | - | - | 0 W/m² | - |
| 1777443747 | 39.44° C | 54% | 1007 hPa | - | - | 0 W/m² | - |
| 1777442822 | 38.89° C | 57% | 1008 hPa | - | - | 0 W/m² | - |
| 1777441898 | 37.22° C | 61% | 1008 hPa | - | - | 0 W/m² | - |
| 1777440973 | 38.33° C | 56% | 1008 hPa | - | - | 0 W/m² | - |
| 1777440048 | 38.33° C | 56% | 1008 hPa | - | - | 0 W/m² | - |
| 1777439124 | 37.78° C | 58% | 1008 hPa | - | - | 0 W/m² | - |
| 1777438199 | 37.78° C | 58% | 1009 hPa | - | - | 0 W/m² | - |
| 1777437275 | 37.22° C | 58% | 1009 hPa | - | - | 0 W/m² | - |
| 1777436350 | 37.22° C | 58% | 1009 hPa | - | - | 0 W/m² | - |
| 1777435425 | 37.22° C | 57% | 1009 hPa | - | - | 0 W/m² | - |
| 1777434501 | 36.67° C | 57% | 1009 hPa | - | - | 0 W/m² | - |
* Rain since midnight (hover to see other rain measurements)
** Current wind speed in m/s (hover to see current wind gust speed)